sensor_id;sensor_type;location;lat;lon;timestamp;P1;P2;P0
45312;PMS7003;68267;51.540;5.854;2023-06-22T00:08:06;5.53;8.29;8.08
45312;PMS7003;68267;51.540;5.854;2023-06-22T00:21:25;7.09;8.51;8.18
45312;PMS7003;68267;51.540;5.854;2023-06-22T00:34:45;7.09;9.71;9.38
45312;PMS7003;68267;51.540;5.854;2023-06-22T00:48:04;7.93;10.47;10.04
45312;PMS7003;68267;51.540;5.854;2023-06-22T01:01:24;10.09;11.13;10.91
45312;PMS7003;68267;51.540;5.854;2023-06-22T01:14:44;9.25;11.67;11.02
45312;PMS7003;68267;51.540;5.854;2023-06-22T01:28:04;9.61;12.0;11.45
45312;PMS7003;68267;51.540;5.854;2023-06-22T01:41:23;12.73;13.63;13.42
45312;PMS7003;68267;51.540;5.854;2023-06-22T01:54:43;13.33;15.38;14.51
45312;PMS7003;68267;51.540;5.854;2023-06-22T02:08:03;11.89;14.07;13.63
45312;PMS7003;68267;51.540;5.854;2023-06-22T02:21:22;12.85;14.94;14.4
45312;PMS7003;68267;51.540;5.854;2023-06-22T02:34:42;13.81;15.81;15.6
45312;PMS7003;68267;51.540;5.854;2023-06-22T02:48:02;13.81;15.81;15.38
45312;PMS7003;68267;51.540;5.854;2023-06-22T03:01:22;13.81;15.81;15.49
45312;PMS7003;68267;51.540;5.854;2023-06-22T03:14:41;13.33;15.38;14.94
45312;PMS7003;68267;51.540;5.854;2023-06-22T03:28:01;14.17;16.14;15.38
45312;PMS7003;68267;51.540;5.854;2023-06-22T03:41:21;13.69;15.71;15.05
45312;PMS7003;68267;51.540;5.854;2023-06-22T03:54:40;13.57;15.6;15.38
45312;PMS7003;68267;51.540;5.854;2023-06-22T04:08:00;14.29;16.25;15.71
45312;PMS7003;68267;51.540;5.854;2023-06-22T04:21:20;15.61;17.45;16.9
45312;PMS7003;68267;51.540;5.854;2023-06-22T04:34:40;17.65;18.21;17.23
45312;PMS7003;68267;51.540;5.854;2023-06-22T04:47:59;17.77;18.43;17.34
45312;PMS7003;68267;51.540;5.854;2023-06-22T05:01:19;17.53;19.19;18.32
45312;PMS7003;68267;51.540;5.854;2023-06-22T05:14:39;17.65;19.3;18.54
45312;PMS7003;68267;51.540;5.854;2023-06-22T05:27:59;19.69;21.16;20.5
45312;PMS7003;68267;51.540;5.854;2023-06-22T05:41:18;19.69;21.16;20.72
45312;PMS7003;68267;51.540;5.854;2023-06-22T05:54:38;19.69;21.16;20.61
45312;PMS7003;68267;51.540;5.854;2023-06-22T06:07:58;19.57;21.05;20.5
45312;PMS7003;68267;51.540;5.854;2023-06-22T06:21:18;20.29;21.7;21.26
45312;PMS7003;68267;51.540;5.854;2023-06-22T06:34:38;19.21;20.72;20.28
45312;PMS7003;68267;51.540;5.854;2023-06-22T06:47:57;20.41;21.16;20.28
45312;PMS7003;68267;51.540;5.854;2023-06-22T07:01:17;20.89;22.25;21.48
45312;PMS7003;68267;51.540;5.854;2023-06-22T07:14:37;21.61;22.68;21.92
45312;PMS7003;68267;51.540;5.854;2023-06-22T07:27:57;23.17;23.23;22.57
45312;PMS7003;68267;51.540;5.854;2023-06-22T07:41:16;22.09;22.68;21.48
45312;PMS7003;68267;51.540;5.854;2023-06-22T07:54:36;22.93;23.01;22.68
45312;PMS7003;68267;51.540;5.854;2023-06-22T08:07:56;20.53;21.92;21.05
45312;PMS7003;68267;51.540;5.854;2023-06-22T08:21:15;20.65;21.05;20.72
45312;PMS7003;68267;51.540;5.854;2023-06-22T08:34:35;22.57;23.01;22.03
45312;PMS7003;68267;51.540;5.854;2023-06-22T08:47:54;22.81;21.92;21.26
45312;PMS7003;68267;51.540;5.854;2023-06-22T09:01:14;19.09;20.61;20.28
45312;PMS7003;68267;51.540;5.854;2023-06-22T09:14:34;22.45;23.66;21.59
45312;PMS7003;68267;51.540;5.854;2023-06-22T09:27:53;20.53;21.92;20.61
45312;PMS7003;68267;51.540;5.854;2023-06-22T09:41:13;19.33;20.28;19.96
45312;PMS7003;68267;51.540;5.854;2023-06-22T09:54:33;18.61;20.17;19.85
45312;PMS7003;68267;51.540;5.854;2023-06-22T10:07:52;21.49;22.25;20.39
45312;PMS7003;68267;51.540;5.854;2023-06-22T10:21:12;21.01;21.59;20.61
45312;PMS7003;68267;51.540;5.854;2023-06-22T10:34:31;18.37;19.96;19.52
45312;PMS7003;68267;51.540;5.854;2023-06-22T10:47:51;21.61;22.03;20.61
45312;PMS7003;68267;51.540;5.854;2023-06-22T11:01:11;22.93;24.1;22.68
45312;PMS7003;68267;51.540;5.854;2023-06-22T11:14:30;24.37;24.53;23.99
45312;PMS7003;68267;51.540;5.854;2023-06-22T11:27:50;25.93;26.82;26.17
45312;PMS7003;68267;51.540;5.854;2023-06-22T11:41:10;28.21;28.89;28.02
45312;PMS7003;68267;51.540;5.854;2023-06-22T11:54:30;30.01;30.53;29.33
45312;PMS7003;68267;51.540;5.854;2023-06-22T12:07:50;31.21;31.62;30.86
45312;PMS7003;68267;51.540;5.854;2023-06-22T12:21:09;29.17;29.77;29.33
45312;PMS7003;68267;51.540;5.854;2023-06-22T12:34:29;28.57;29.22;28.89
45312;PMS7003;68267;51.540;5.854;2023-06-22T12:47:49;27.73;28.46;28.02
45312;PMS7003;68267;51.540;5.854;2023-06-22T13:01:09;27.01;27.8;27.37
45312;PMS7003;68267;51.540;5.854;2023-06-22T13:14:29;28.57;29.22;28.57
45312;PMS7003;68267;51.540;5.854;2023-06-22T13:27:49;26.89;27.7;27.37
45312;PMS7003;68267;51.540;5.854;2023-06-22T13:41:08;29.29;29.88;29.0
45312;PMS7003;68267;51.540;5.854;2023-06-22T13:54:28;28.45;29.11;28.35
45312;PMS7003;68267;51.540;5.854;2023-06-22T14:07:48;28.81;29.44;28.57
45312;PMS7003;68267;51.540;5.854;2023-06-22T14:21:07;29.65;30.2;29.77
45312;PMS7003;68267;51.540;5.854;2023-06-22T14:34:27;33.01;33.25;32.49
45312;PMS7003;68267;51.540;5.854;2023-06-22T14:47:47;38.54;37.4;36.96
45312;PMS7003;68267;51.540;5.854;2023-06-22T15:01:06;38.66;38.38;37.5
45312;PMS7003;68267;51.540;5.854;2023-06-22T15:14:26;37.46;37.29;36.52
45312;PMS7003;68267;51.540;5.854;2023-06-22T15:27:46;39.86;39.47;38.38
45312;PMS7003;68267;51.540;5.854;2023-06-22T15:41:06;40.22;39.79;38.38
45312;PMS7003;68267;51.540;5.854;2023-06-22T15:54:25;42.38;41.76;40.45
45312;PMS7003;68267;51.540;5.854;2023-06-22T16:07:45;41.06;40.56;39.36
45312;PMS7003;68267;51.540;5.854;2023-06-22T16:21:05;40.22;39.25;37.83
45312;PMS7003;68267;51.540;5.854;2023-06-22T16:34:24;41.3;40.12;39.03
45312;PMS7003;68267;51.540;5.854;2023-06-22T16:47:44;38.54;38.27;37.4
45312;PMS7003;68267;51.540;5.854;2023-06-22T17:01:04;43.46;42.74;41.21
45312;PMS7003;68267;51.540;5.854;2023-06-22T17:14:24;40.34;39.9;38.05
45312;PMS7003;68267;51.540;5.854;2023-06-22T17:27:43;38.9;38.59;37.4
45312;PMS7003;68267;51.540;5.854;2023-06-22T17:41:03;41.18;40.34;39.03
45312;PMS7003;68267;51.540;5.854;2023-06-22T17:54:23;41.18;40.56;39.36
45312;PMS7003;68267;51.540;5.854;2023-06-22T18:07:43;44.18;43.39;42.3
45312;PMS7003;68267;51.540;5.854;2023-06-22T18:21:02;44.78;43.83;42.63
45312;PMS7003;68267;51.540;5.854;2023-06-22T18:34:22;42.86;42.19;40.99
45312;PMS7003;68267;51.540;5.854;2023-06-22T18:47:42;43.46;42.74;41.21
45312;PMS7003;68267;51.540;5.854;2023-06-22T19:01:02;39.62;39.25;38.05
45312;PMS7003;68267;51.540;5.854;2023-06-22T19:14:22;36.5;36.41;35.65
45312;PMS7003;68267;51.540;5.854;2023-06-22T19:27:41;33.86;34.02;33.25
45312;PMS7003;68267;51.540;5.854;2023-06-22T19:41:01;28.45;29.11;28.46
45312;PMS7003;68267;51.540;5.854;2023-06-22T19:54:21;26.41;26.82;26.17
45312;PMS7003;68267;51.540;5.854;2023-06-22T20:07:41;29.41;29.98;29.0
45312;PMS7003;68267;51.540;5.854;2023-06-22T20:21:00;33.86;34.02;32.93
45312;PMS7003;68267;51.540;5.854;2023-06-22T20:34:20;40.46;35.54;34.13
45312;PMS7003;68267;51.540;5.854;2023-06-22T20:47:40;38.06;37.83;35.98
45312;PMS7003;68267;51.540;5.854;2023-06-22T21:01:00;23.53;24.64;23.55
45312;PMS7003;68267;51.540;5.854;2023-06-22T21:14:19;24.73;25.73;24.64
45312;PMS7003;68267;51.540;5.854;2023-06-22T21:27:39;17.05;18.1;17.56
45312;PMS7003;68267;51.540;5.854;2023-06-22T21:40:59;14.77;16.69;16.47
45312;PMS7003;68267;51.540;5.854;2023-06-22T21:54:19;11.89;14.07;13.42
45312;PMS7003;68267;51.540;5.854;2023-06-22T22:07:38;9.73;12.11;11.78
45312;PMS7003;68267;51.540;5.854;2023-06-22T22:20:58;10.09;10.26;9.6
45312;PMS7003;68267;51.540;5.854;2023-06-22T22:34:17;6.85;9.49;8.95
45312;PMS7003;68267;51.540;5.854;2023-06-22T22:47:37;6.13;8.84;8.51
45312;PMS7003;68267;51.540;5.854;2023-06-22T23:00:57;5.41;8.18;8.08
45312;PMS7003;68267;51.540;5.854;2023-06-22T23:14:16;6.37;9.06;8.62
45312;PMS7003;68267;51.540;5.854;2023-06-22T23:27:36;6.13;8.84;8.73
45312;PMS7003;68267;51.540;5.854;2023-06-22T23:40:56;7.33;9.93;9.17
45312;PMS7003;68267;51.540;5.854;2023-06-22T23:54:15;8.05;10.58;9.93
